Weather at Bacchus Marsh Airport

Public forecast

Using degrees Celsius for public forecast. Weather courtesy of forecast.io.

Closest aviation weather report (METAR) to Bacchus Marsh Airport

Closest report is Avalon Airport, 18.5 nm (34.3 km) S.

2024/06/18 11:30 (retrieved 37 minutes ago)

YMAV 181130Z AUTO 00000KT 9999 // NCD 03/00 Q1019 RF000/0000

Closest aviation forecast (TAF) to Bacchus Marsh Airport

Closest forecast is Avalon Airport, 18.5 nm (34.3 km) S.

2024/06/18 12:36 (retrieved 0 seconds ago)

TAF TAF YMAV 181104Z 1812/1912 28005KT 9999 SCT040 FM190100 09006KT 9999 FEW040 FM191000 30005KT 9999 FEW040